Rockwood, Tennessee
Current Conditions -  °F | °C
As of 1:53 PM on Tuesday 21 Oct 2014 (Local Time) from KCSV Reporting Station
Clear Clear  
Wind Chill: 64°   Ceiling: Unl
Heat Index: 64°   Visibility: 10mi
Dew Point: 41°   Wind: 13mph
Humidity: 43%   Direction: 350°N
Pressure: 30.05"   Gusts: NA
Location:  35.87°N, 84.68°W
Report Text: KCSV 211753Z AUTO 35011KT 10SM CLR 18/05 A3005 RMK AO2 SLP166 T01780050 10178 20089 58006
Loading
Personal Weather Stations






























Interactive Weather Map
Tropical Storm Tracking
New forecast layout! Learn more

10-Day Weather Forecast

Advertisements
Track Severe Weather on mobile